Portada
METAR-TAF:

METAR-TAF

Aeropuertos :

Oita, Japón

latitud: 33-29N, longitud: 131-44E, altitud: 5 m

Observación

El informe se hizo hace 49 minutos, a las 01:00 UTC
Viento 3 kt del este-sureste, variando entre este-noreste y sur-sureste
Temperatura 27°C
Humedad 79%
Presión 1002 hPa
Visibilidad 10 km o más
Escasas nubes a una altura de 3000 ft
Nubes dispersas

METAR: RJFO 280100Z 11003KT 070V160 9999 FEW030 SCT/// 27/23 Q1002

Hora: 10:49 (01:49 UTC)

Pronóstico

El informe se hizo hace 2 horas y 35 minutos, a las 23:14 UTC
Pronóstico válido del 28 a las 00 UTC al 29 a las 06 UTC
Viento 5 kt del este
Visibilidad 10 km o más
Escasas nubes a una altura de 3000 ft
Evolucionando progresivamente
del 28 a las 21 UTC al 29 a las 00 UTC
Viento 5 kt del este
Evolucionando progresivamente
del 29 a las 03 UTC al 29 a las 06 UTC
Viento 6 kt del este-sureste

TAF: RJFO 272314Z 2800/2906 10005KT 9999 FEW030 BECMG 2821/2900 08005KT BECMG 2903/2906 11006KT

Observaciones y pronósticos meteorológicos de más de 4000 aeropuertos (mensajes METAR y TAF).

Los puntos amarillos y rojos representan las estaciones disponibles.

Ponga el ratón en el punto deseado para ver el nombre de la estación.

Haga clic para ver las observaciones y los pronósticos meteorológicos.

Para cambiar el mapa : haga clic en los botones verdes con una cruz de color negro para hacer un zoom, en el botón verde con un guión para alejar o en las flechas verdes para mapas adyacentes.


METAR-TAF: